sensor_id;sensor_type;location;lat;lon;timestamp;temperature;humidity
41965;DHT22;50120;53.250;8.702;2022-10-31T00:01:15;14.10;99.90
41965;DHT22;50120;53.250;8.702;2022-10-31T00:03:41;14.00;99.90
41965;DHT22;50120;53.250;8.702;2022-10-31T00:06:07;14.00;99.90
41965;DHT22;50120;53.250;8.702;2022-10-31T00:08:33;14.00;99.90
41965;DHT22;50120;53.250;8.702;2022-10-31T00:10:59;13.90;99.90
41965;DHT22;50120;53.250;8.702;2022-10-31T00:13:25;13.90;99.90
41965;DHT22;50120;53.250;8.702;2022-10-31T00:15:51;13.80;99.90
41965;DHT22;50120;53.250;8.702;2022-10-31T00:18:17;13.80;99.90
41965;DHT22;50120;53.250;8.702;2022-10-31T00:20:43;13.80;99.90
41965;DHT22;50120;53.250;8.702;2022-10-31T00:23:09;13.70;99.90
41965;DHT22;50120;53.250;8.702;2022-10-31T00:25:38;13.60;99.90
41965;DHT22;50120;53.250;8.702;2022-10-31T00:28:05;13.60;99.90
41965;DHT22;50120;53.250;8.702;2022-10-31T00:30:32;13.50;99.90
41965;DHT22;50120;53.250;8.702;2022-10-31T00:32:58;13.50;99.90
41965;DHT22;50120;53.250;8.702;2022-10-31T00:35:23;13.50;99.90
41965;DHT22;50120;53.250;8.702;2022-10-31T00:37:49;13.40;99.90
41965;DHT22;50120;53.250;8.702;2022-10-31T00:40:15;13.30;99.90
41965;DHT22;50120;53.250;8.702;2022-10-31T00:42:41;13.30;99.90
41965;DHT22;50120;53.250;8.702;2022-10-31T00:45:08;13.30;99.90
41965;DHT22;50120;53.250;8.702;2022-10-31T00:47:34;13.30;99.90
41965;DHT22;50120;53.250;8.702;2022-10-31T00:50:00;13.20;99.90
41965;DHT22;50120;53.250;8.702;2022-10-31T00:52:25;13.20;99.90
41965;DHT22;50120;53.250;8.702;2022-10-31T00:54:51;13.20;99.90
41965;DHT22;50120;53.250;8.702;2022-10-31T00:57:17;13.20;99.90
41965;DHT22;50120;53.250;8.702;2022-10-31T00:59:42;13.10;99.90
41965;DHT22;50120;53.250;8.702;2022-10-31T01:02:08;13.10;99.90
41965;DHT22;50120;53.250;8.702;2022-10-31T01:04:34;13.10;99.90
41965;DHT22;50120;53.250;8.702;2022-10-31T01:06:59;13.10;99.90
41965;DHT22;50120;53.250;8.702;2022-10-31T01:09:25;13.10;99.90
41965;DHT22;50120;53.250;8.702;2022-10-31T01:11:51;13.00;99.90
41965;DHT22;50120;53.250;8.702;2022-10-31T01:14:16;13.00;99.90
41965;DHT22;50120;53.250;8.702;2022-10-31T01:16:42;13.00;99.90
41965;DHT22;50120;53.250;8.702;2022-10-31T01:19:08;13.00;99.90
41965;DHT22;50120;53.250;8.702;2022-10-31T01:21:33;13.00;99.90
41965;DHT22;50120;53.250;8.702;2022-10-31T01:23:59;13.00;99.90
41965;DHT22;50120;53.250;8.702;2022-10-31T01:26:30;13.00;99.90
41965;DHT22;50120;53.250;8.702;2022-10-31T01:28:58;13.00;99.90
41965;DHT22;50120;53.250;8.702;2022-10-31T01:31:28;13.00;99.90
41965;DHT22;50120;53.250;8.702;2022-10-31T01:33:54;13.00;99.90
41965;DHT22;50120;53.250;8.702;2022-10-31T01:36:23;12.90;99.90
41965;DHT22;50120;53.250;8.702;2022-10-31T01:38:51;12.90;99.90
41965;DHT22;50120;53.250;8.702;2022-10-31T01:41:20;12.90;99.90
41965;DHT22;50120;53.250;8.702;2022-10-31T01:46:17;12.90;99.90
41965;DHT22;50120;53.250;8.702;2022-10-31T01:48:45;12.90;99.90
41965;DHT22;50120;53.250;8.702;2022-10-31T01:51:13;12.80;99.90
41965;DHT22;50120;53.250;8.702;2022-10-31T01:53:40;12.80;99.90
41965;DHT22;50120;53.250;8.702;2022-10-31T01:56:08;12.80;99.90
41965;DHT22;50120;53.250;8.702;2022-10-31T01:58:34;12.70;99.90
41965;DHT22;50120;53.250;8.702;2022-10-31T02:01:01;12.60;99.90
41965;DHT22;50120;53.250;8.702;2022-10-31T02:03:28;12.60;99.90
41965;DHT22;50120;53.250;8.702;2022-10-31T02:05:55;12.50;99.90
41965;DHT22;50120;53.250;8.702;2022-10-31T02:08:31;12.50;99.90
41965;DHT22;50120;53.250;8.702;2022-10-31T02:10:58;12.50;99.90
41965;DHT22;50120;53.250;8.702;2022-10-31T02:13:25;12.50;99.90
41965;DHT22;50120;53.250;8.702;2022-10-31T02:15:56;12.50;99.90
41965;DHT22;50120;53.250;8.702;2022-10-31T02:18:23;12.40;99.90
41965;DHT22;50120;53.250;8.702;2022-10-31T02:29:37;12.30;99.90
41965;DHT22;50120;53.250;8.702;2022-10-31T02:35:13;12.30;99.90
41965;DHT22;50120;53.250;8.702;2022-10-31T02:40:47;12.20;99.90
41965;DHT22;50120;53.250;8.702;2022-10-31T02:43:23;12.20;99.90
41965;DHT22;50120;53.250;8.702;2022-10-31T02:48:28;12.00;99.90
41965;DHT22;50120;53.250;8.702;2022-10-31T02:50:59;12.10;99.90
41965;DHT22;50120;53.250;8.702;2022-10-31T02:53:25;12.00;99.90
41965;DHT22;50120;53.250;8.702;2022-10-31T02:56:14;12.00;99.90
41965;DHT22;50120;53.250;8.702;2022-10-31T02:58:49;11.90;99.90
41965;DHT22;50120;53.250;8.702;2022-10-31T03:12:44;11.80;99.90
41965;DHT22;50120;53.250;8.702;2022-10-31T03:15:30;11.80;99.90
41965;DHT22;50120;53.250;8.702;2022-10-31T03:18:06;11.80;99.90
41965;DHT22;50120;53.250;8.702;2022-10-31T03:20:40;11.70;99.90
41965;DHT22;50120;53.250;8.702;2022-10-31T03:23:14;11.70;99.90
41965;DHT22;50120;53.250;8.702;2022-10-31T03:25:41;11.70;99.90
41965;DHT22;50120;53.250;8.702;2022-10-31T03:28:08;11.70;99.90
41965;DHT22;50120;53.250;8.702;2022-10-31T03:30:37;11.70;99.90
41965;DHT22;50120;53.250;8.702;2022-10-31T03:33:08;11.70;99.90
41965;DHT22;50120;53.250;8.702;2022-10-31T03:35:36;11.70;99.90
41965;DHT22;50120;53.250;8.702;2022-10-31T03:38:03;11.70;99.90
41965;DHT22;50120;53.250;8.702;2022-10-31T03:40:31;11.80;99.90
41965;DHT22;50120;53.250;8.702;2022-10-31T03:43:04;11.80;99.90
41965;DHT22;50120;53.250;8.702;2022-10-31T03:45:38;11.80;99.90
41965;DHT22;50120;53.250;8.702;2022-10-31T03:48:06;11.80;99.90
41965;DHT22;50120;53.250;8.702;2022-10-31T03:50:45;11.80;99.90
41965;DHT22;50120;53.250;8.702;2022-10-31T03:53:22;11.80;99.90
41965;DHT22;50120;53.250;8.702;2022-10-31T03:55:54;11.80;99.90
41965;DHT22;50120;53.250;8.702;2022-10-31T03:58:26;11.80;99.90
41965;DHT22;50120;53.250;8.702;2022-10-31T04:00:54;11.80;99.90
41965;DHT22;50120;53.250;8.702;2022-10-31T04:03:25;11.80;99.90
41965;DHT22;50120;53.250;8.702;2022-10-31T04:05:54;11.90;99.90
41965;DHT22;50120;53.250;8.702;2022-10-31T04:08:24;11.90;99.90
41965;DHT22;50120;53.250;8.702;2022-10-31T04:10:52;11.90;99.90
41965;DHT22;50120;53.250;8.702;2022-10-31T04:13:25;12.00;99.90
41965;DHT22;50120;53.250;8.702;2022-10-31T04:15:52;12.00;99.90
41965;DHT22;50120;53.250;8.702;2022-10-31T04:18:19;12.00;99.90
41965;DHT22;50120;53.250;8.702;2022-10-31T04:20:47;12.00;99.90
41965;DHT22;50120;53.250;8.702;2022-10-31T04:23:25;12.00;99.90
41965;DHT22;50120;53.250;8.702;2022-10-31T04:25:51;12.00;99.90
41965;DHT22;50120;53.250;8.702;2022-10-31T04:28:17;11.90;99.90
41965;DHT22;50120;53.250;8.702;2022-10-31T04:30:43;12.00;99.90
41965;DHT22;50120;53.250;8.702;2022-10-31T04:33:09;11.90;99.90
41965;DHT22;50120;53.250;8.702;2022-10-31T04:35:35;11.90;99.90
41965;DHT22;50120;53.250;8.702;2022-10-31T04:38:00;12.00;99.90
41965;DHT22;50120;53.250;8.702;2022-10-31T04:40:26;11.90;99.90
41965;DHT22;50120;53.250;8.702;2022-10-31T04:42:52;11.90;99.90
41965;DHT22;50120;53.250;8.702;2022-10-31T04:45:17;11.90;99.90
41965;DHT22;50120;53.250;8.702;2022-10-31T04:47:43;11.90;99.90
41965;DHT22;50120;53.250;8.702;2022-10-31T04:50:09;11.90;99.90
41965;DHT22;50120;53.250;8.702;2022-10-31T04:52:45;11.90;99.90
41965;DHT22;50120;53.250;8.702;2022-10-31T04:55:12;11.90;99.90
41965;DHT22;50120;53.250;8.702;2022-10-31T04:57:46;11.90;99.90
41965;DHT22;50120;53.250;8.702;2022-10-31T05:00:14;11.90;99.90
41965;DHT22;50120;53.250;8.702;2022-10-31T05:02:52;11.90;99.90
41965;DHT22;50120;53.250;8.702;2022-10-31T05:05:20;11.90;99.90
41965;DHT22;50120;53.250;8.702;2022-10-31T05:07:47;11.90;99.90
41965;DHT22;50120;53.250;8.702;2022-10-31T05:10:15;11.90;99.90
41965;DHT22;50120;53.250;8.702;2022-10-31T05:12:49;12.00;99.90
41965;DHT22;50120;53.250;8.702;2022-10-31T05:15:16;12.00;99.90
41965;DHT22;50120;53.250;8.702;2022-10-31T05:17:43;12.00;99.90
41965;DHT22;50120;53.250;8.702;2022-10-31T05:20:13;12.00;99.90
41965;DHT22;50120;53.250;8.702;2022-10-31T05:22:49;12.00;99.90
41965;DHT22;50120;53.250;8.702;2022-10-31T05:25:16;12.00;99.90
41965;DHT22;50120;53.250;8.702;2022-10-31T05:27:47;12.00;99.90
41965;DHT22;50120;53.250;8.702;2022-10-31T05:30:15;12.00;99.90
41965;DHT22;50120;53.250;8.702;2022-10-31T05:32:43;12.10;99.90
41965;DHT22;50120;53.250;8.702;2022-10-31T05:35:14;12.00;99.90
41965;DHT22;50120;53.250;8.702;2022-10-31T05:37:40;12.00;99.90
41965;DHT22;50120;53.250;8.702;2022-10-31T05:40:07;12.00;99.90
41965;DHT22;50120;53.250;8.702;2022-10-31T05:42:33;12.10;99.90
41965;DHT22;50120;53.250;8.702;2022-10-31T05:44:59;12.00;99.90
41965;DHT22;50120;53.250;8.702;2022-10-31T05:47:25;12.00;99.90
41965;DHT22;50120;53.250;8.702;2022-10-31T05:49:51;12.00;99.90
41965;DHT22;50120;53.250;8.702;2022-10-31T05:52:17;12.00;99.90
41965;DHT22;50120;53.250;8.702;2022-10-31T05:54:43;11.90;99.90
41965;DHT22;50120;53.250;8.702;2022-10-31T05:57:08;11.80;99.90
41965;DHT22;50120;53.250;8.702;2022-10-31T05:59:34;11.80;99.90
41965;DHT22;50120;53.250;8.702;2022-10-31T06:02:00;11.80;99.90
41965;DHT22;50120;53.250;8.702;2022-10-31T06:04:25;11.80;99.90
41965;DHT22;50120;53.250;8.702;2022-10-31T06:06:51;11.70;99.90
41965;DHT22;50120;53.250;8.702;2022-10-31T06:09:17;11.60;99.90
41965;DHT22;50120;53.250;8.702;2022-10-31T06:11:43;11.60;99.90
41965;DHT22;50120;53.250;8.702;2022-10-31T06:14:08;11.50;99.90
41965;DHT22;50120;53.250;8.702;2022-10-31T06:16:34;11.50;99.90
41965;DHT22;50120;53.250;8.702;2022-10-31T06:19:02;11.50;99.90
41965;DHT22;50120;53.250;8.702;2022-10-31T06:21:28;11.50;99.90
41965;DHT22;50120;53.250;8.702;2022-10-31T06:23:53;11.40;99.90
41965;DHT22;50120;53.250;8.702;2022-10-31T06:26:19;11.40;99.90
41965;DHT22;50120;53.250;8.702;2022-10-31T06:28:45;11.40;99.90
41965;DHT22;50120;53.250;8.702;2022-10-31T06:31:10;11.40;99.90
41965;DHT22;50120;53.250;8.702;2022-10-31T06:33:36;11.30;99.90
41965;DHT22;50120;53.250;8.702;2022-10-31T06:36:02;11.30;99.90
41965;DHT22;50120;53.250;8.702;2022-10-31T06:38:28;11.20;99.90
41965;DHT22;50120;53.250;8.702;2022-10-31T06:40:54;11.20;99.90
41965;DHT22;50120;53.250;8.702;2022-10-31T06:43:21;11.20;99.90
41965;DHT22;50120;53.250;8.702;2022-10-31T06:45:50;11.20;99.90
41965;DHT22;50120;53.250;8.702;2022-10-31T06:48:15;11.10;99.90
41965;DHT22;50120;53.250;8.702;2022-10-31T06:50:41;11.10;99.90
41965;DHT22;50120;53.250;8.702;2022-10-31T06:53:09;11.10;99.90
41965;DHT22;50120;53.250;8.702;2022-10-31T06:55:35;11.10;99.90
41965;DHT22;50120;53.250;8.702;2022-10-31T06:58:01;11.10;99.90
41965;DHT22;50120;53.250;8.702;2022-10-31T07:00:28;11.10;99.90
41965;DHT22;50120;53.250;8.702;2022-10-31T07:02:59;11.10;99.90
41965;DHT22;50120;53.250;8.702;2022-10-31T07:05:26;11.10;99.90
41965;DHT22;50120;53.250;8.702;2022-10-31T07:08:00;11.10;99.90
41965;DHT22;50120;53.250;8.702;2022-10-31T07:10:27;11.10;99.90
41965;DHT22;50120;53.250;8.702;2022-10-31T07:13:01;11.00;99.90
41965;DHT22;50120;53.250;8.702;2022-10-31T07:15:29;11.00;99.90
41965;DHT22;50120;53.250;8.702;2022-10-31T07:18:00;11.00;99.90
41965;DHT22;50120;53.250;8.702;2022-10-31T07:20:27;11.00;99.90
41965;DHT22;50120;53.250;8.702;2022-10-31T07:22:53;11.00;99.90
41965;DHT22;50120;53.250;8.702;2022-10-31T07:25:18;11.00;99.90
41965;DHT22;50120;53.250;8.702;2022-10-31T07:27:44;11.00;99.90
41965;DHT22;50120;53.250;8.702;2022-10-31T07:30:11;10.90;99.90
41965;DHT22;50120;53.250;8.702;2022-10-31T07:32:43;11.00;99.90
41965;DHT22;50120;53.250;8.702;2022-10-31T07:35:11;10.90;99.90
41965;DHT22;50120;53.250;8.702;2022-10-31T07:37:38;10.90;99.90
41965;DHT22;50120;53.250;8.702;2022-10-31T07:40:05;10.90;99.90
41965;DHT22;50120;53.250;8.702;2022-10-31T07:42:41;10.80;99.90
41965;DHT22;50120;53.250;8.702;2022-10-31T07:45:09;10.80;99.90
41965;DHT22;50120;53.250;8.702;2022-10-31T07:47:46;10.80;99.90
41965;DHT22;50120;53.250;8.702;2022-10-31T07:50:14;10.80;99.90
41965;DHT22;50120;53.250;8.702;2022-10-31T07:52:41;10.80;99.90
41965;DHT22;50120;53.250;8.702;2022-10-31T07:55:07;10.80;99.90
41965;DHT22;50120;53.250;8.702;2022-10-31T07:57:33;10.80;99.90
41965;DHT22;50120;53.250;8.702;2022-10-31T07:59:59;10.90;99.90
41965;DHT22;50120;53.250;8.702;2022-10-31T08:02:25;10.90;99.90
41965;DHT22;50120;53.250;8.702;2022-10-31T08:04:51;11.00;99.90
41965;DHT22;50120;53.250;8.702;2022-10-31T08:07:17;11.00;99.90
41965;DHT22;50120;53.250;8.702;2022-10-31T08:09:43;11.00;99.90
41965;DHT22;50120;53.250;8.702;2022-10-31T08:12:09;11.10;99.90
41965;DHT22;50120;53.250;8.702;2022-10-31T08:14:34;11.10;99.90
41965;DHT22;50120;53.250;8.702;2022-10-31T08:17:00;11.10;99.90
41965;DHT22;50120;53.250;8.702;2022-10-31T08:19:26;11.20;99.90
41965;DHT22;50120;53.250;8.702;2022-10-31T08:21:52;11.20;99.90
41965;DHT22;50120;53.250;8.702;2022-10-31T08:24:23;11.30;99.90
41965;DHT22;50120;53.250;8.702;2022-10-31T08:26:48;11.30;99.90
41965;DHT22;50120;53.250;8.702;2022-10-31T08:29:14;11.30;99.90
41965;DHT22;50120;53.250;8.702;2022-10-31T08:31:41;11.30;99.90
41965;DHT22;50120;53.250;8.702;2022-10-31T08:34:07;11.30;99.90
41965;DHT22;50120;53.250;8.702;2022-10-31T08:36:33;11.30;99.90
41965;DHT22;50120;53.250;8.702;2022-10-31T08:38:58;11.40;99.90
41965;DHT22;50120;53.250;8.702;2022-10-31T08:41:24;11.40;99.90
41965;DHT22;50120;53.250;8.702;2022-10-31T08:43:50;11.40;99.90
41965;DHT22;50120;53.250;8.702;2022-10-31T08:46:16;11.40;99.90
41965;DHT22;50120;53.250;8.702;2022-10-31T08:48:42;11.40;99.90
41965;DHT22;50120;53.250;8.702;2022-10-31T08:51:08;11.40;99.90
41965;DHT22;50120;53.250;8.702;2022-10-31T08:53:35;11.50;99.90
41965;DHT22;50120;53.250;8.702;2022-10-31T08:56:00;11.50;99.90
41965;DHT22;50120;53.250;8.702;2022-10-31T08:58:26;11.50;99.90
41965;DHT22;50120;53.250;8.702;2022-10-31T09:00:54;11.60;99.90
41965;DHT22;50120;53.250;8.702;2022-10-31T09:03:26;11.60;99.90
41965;DHT22;50120;53.250;8.702;2022-10-31T09:05:58;11.60;99.90
41965;DHT22;50120;53.250;8.702;2022-10-31T09:08:25;11.60;99.90
41965;DHT22;50120;53.250;8.702;2022-10-31T09:10:50;11.60;99.90
41965;DHT22;50120;53.250;8.702;2022-10-31T09:13:19;11.60;99.90
41965;DHT22;50120;53.250;8.702;2022-10-31T09:15:46;11.70;99.90
41965;DHT22;50120;53.250;8.702;2022-10-31T09:18:14;11.80;99.90
41965;DHT22;50120;53.250;8.702;2022-10-31T09:20:41;11.90;99.90
41965;DHT22;50120;53.250;8.702;2022-10-31T09:23:15;12.00;99.90
41965;DHT22;50120;53.250;8.702;2022-10-31T09:25:41;12.10;99.90
41965;DHT22;50120;53.250;8.702;2022-10-31T09:28:10;12.30;99.90
41965;DHT22;50120;53.250;8.702;2022-10-31T09:30:36;12.30;99.90
41965;DHT22;50120;53.250;8.702;2022-10-31T09:33:09;12.40;99.90
41965;DHT22;50120;53.250;8.702;2022-10-31T09:35:35;12.40;99.90
41965;DHT22;50120;53.250;8.702;2022-10-31T09:38:15;12.40;99.90
41965;DHT22;50120;53.250;8.702;2022-10-31T09:40:46;12.40;99.90
41965;DHT22;50120;53.250;8.702;2022-10-31T09:51:47;12.50;99.90
41965;DHT22;50120;53.250;8.702;2022-10-31T09:54:43;12.50;99.90
41965;DHT22;50120;53.250;8.702;2022-10-31T09:57:16;12.60;99.90
41965;DHT22;50120;53.250;8.702;2022-10-31T09:59:44;12.60;99.90
41965;DHT22;50120;53.250;8.702;2022-10-31T10:08:26;12.80;99.90
41965;DHT22;50120;53.250;8.702;2022-10-31T10:22:23;13.30;99.90
41965;DHT22;50120;53.250;8.702;2022-10-31T10:30:47;13.10;99.90
41965;DHT22;50120;53.250;8.702;2022-10-31T10:35:52;13.00;99.90
41965;DHT22;50120;53.250;8.702;2022-10-31T10:38:49;12.90;99.90
41965;DHT22;50120;53.250;8.702;2022-10-31T10:41:21;12.90;99.90
41965;DHT22;50120;53.250;8.702;2022-10-31T10:43:50;12.80;99.90
41965;DHT22;50120;53.250;8.702;2022-10-31T10:46:42;12.70;99.90
41965;DHT22;50120;53.250;8.702;2022-10-31T10:52:13;12.80;99.90
41965;DHT22;50120;53.250;8.702;2022-10-31T10:55:04;12.80;99.90
41965;DHT22;50120;53.250;8.702;2022-10-31T10:58:07;12.80;99.90
41965;DHT22;50120;53.250;8.702;2022-10-31T11:00:39;12.70;99.90
41965;DHT22;50120;53.250;8.702;2022-10-31T11:03:06;12.60;99.90
41965;DHT22;50120;53.250;8.702;2022-10-31T11:08:34;12.60;99.90
41965;DHT22;50120;53.250;8.702;2022-10-31T11:11:08;12.60;99.90
41965;DHT22;50120;53.250;8.702;2022-10-31T11:13:36;12.60;99.90
41965;DHT22;50120;53.250;8.702;2022-10-31T11:16:14;12.70;99.90
41965;DHT22;50120;53.250;8.702;2022-10-31T11:18:43;12.70;99.90
41965;DHT22;50120;53.250;8.702;2022-10-31T11:21:30;12.70;99.90
41965;DHT22;50120;53.250;8.702;2022-10-31T11:24:03;12.70;99.90
41965;DHT22;50120;53.250;8.702;2022-10-31T11:26:29;12.60;99.90
41965;DHT22;50120;53.250;8.702;2022-10-31T11:28:59;12.60;99.90
41965;DHT22;50120;53.250;8.702;2022-10-31T11:31:25;12.60;99.90
41965;DHT22;50120;53.250;8.702;2022-10-31T11:34:01;12.50;99.90
41965;DHT22;50120;53.250;8.702;2022-10-31T11:36:31;12.60;99.90
41965;DHT22;50120;53.250;8.702;2022-10-31T11:38:59;12.70;99.90
41965;DHT22;50120;53.250;8.702;2022-10-31T11:41:34;12.80;99.90
41965;DHT22;50120;53.250;8.702;2022-10-31T11:44:21;12.90;99.90
41965;DHT22;50120;53.250;8.702;2022-10-31T11:46:51;13.00;99.90
41965;DHT22;50120;53.250;8.702;2022-10-31T11:51:55;13.10;99.90
41965;DHT22;50120;53.250;8.702;2022-10-31T11:54:30;13.10;99.90
41965;DHT22;50120;53.250;8.702;2022-10-31T11:56:57;13.30;99.90
41965;DHT22;50120;53.250;8.702;2022-10-31T11:59:24;13.30;99.90
41965;DHT22;50120;53.250;8.702;2022-10-31T12:01:53;13.40;99.90
41965;DHT22;50120;53.250;8.702;2022-10-31T12:04:27;13.50;99.90
41965;DHT22;50120;53.250;8.702;2022-10-31T12:07:20;13.60;99.90
41965;DHT22;50120;53.250;8.702;2022-10-31T12:09:46;13.70;99.90
41965;DHT22;50120;53.250;8.702;2022-10-31T12:12:23;13.70;99.90
41965;DHT22;50120;53.250;8.702;2022-10-31T12:15:16;13.80;99.90
41965;DHT22;50120;53.250;8.702;2022-10-31T12:18:04;13.80;99.90
41965;DHT22;50120;53.250;8.702;2022-10-31T12:29:15;14.10;99.90
41965;DHT22;50120;53.250;8.702;2022-10-31T12:32:17;14.20;99.90
41965;DHT22;50120;53.250;8.702;2022-10-31T12:37:50;14.20;99.90
41965;DHT22;50120;53.250;8.702;2022-10-31T12:45:57;14.20;99.90
41965;DHT22;50120;53.250;8.702;2022-10-31T12:51:52;14.30;99.90
41965;DHT22;50120;53.250;8.702;2022-10-31T13:00:00;14.20;99.90
41965;DHT22;50120;53.250;8.702;2022-10-31T13:02:35;14.20;99.90
41965;DHT22;50120;53.250;8.702;2022-10-31T13:05:30;14.30;99.90
41965;DHT22;50120;53.250;8.702;2022-10-31T13:08:08;14.20;99.90
41965;DHT22;50120;53.250;8.702;2022-10-31T13:10:43;14.20;99.90
41965;DHT22;50120;53.250;8.702;2022-10-31T13:13:20;14.20;99.90
41965;DHT22;50120;53.250;8.702;2022-10-31T13:16:02;14.20;99.90
41965;DHT22;50120;53.250;8.702;2022-10-31T13:18:42;14.20;99.90
41965;DHT22;50120;53.250;8.702;2022-10-31T13:21:13;14.20;99.90
41965;DHT22;50120;53.250;8.702;2022-10-31T13:23:41;14.20;99.90
41965;DHT22;50120;53.250;8.702;2022-10-31T13:26:43;14.20;99.90
41965;DHT22;50120;53.250;8.702;2022-10-31T13:31:56;14.10;99.90
41965;DHT22;50120;53.250;8.702;2022-10-31T13:34:52;14.00;99.90
41965;DHT22;50120;53.250;8.702;2022-10-31T13:37:37;13.90;99.90
41965;DHT22;50120;53.250;8.702;2022-10-31T13:40:13;13.90;99.90
41965;DHT22;50120;53.250;8.702;2022-10-31T13:45:23;13.80;99.90
41965;DHT22;50120;53.250;8.702;2022-10-31T13:48:29;13.70;99.90
41965;DHT22;50120;53.250;8.702;2022-10-31T13:51:06;13.70;99.90
41965;DHT22;50120;53.250;8.702;2022-10-31T13:56:16;13.60;99.90
41965;DHT22;50120;53.250;8.702;2022-10-31T14:01:22;13.70;99.90
41965;DHT22;50120;53.250;8.702;2022-10-31T14:06:52;13.70;99.90
41965;DHT22;50120;53.250;8.702;2022-10-31T14:12:08;13.80;99.90
41965;DHT22;50120;53.250;8.702;2022-10-31T14:14:56;13.80;99.90
41965;DHT22;50120;53.250;8.702;2022-10-31T14:17:28;13.80;99.90
41965;DHT22;50120;53.250;8.702;2022-10-31T14:22:37;13.80;99.90
41965;DHT22;50120;53.250;8.702;2022-10-31T14:25:24;13.90;99.90
41965;DHT22;50120;53.250;8.702;2022-10-31T14:27:50;13.80;99.90
41965;DHT22;50120;53.250;8.702;2022-10-31T14:30:20;13.80;99.90
41965;DHT22;50120;53.250;8.702;2022-10-31T14:32:52;13.80;99.90
41965;DHT22;50120;53.250;8.702;2022-10-31T14:35:20;13.80;99.90
41965;DHT22;50120;53.250;8.702;2022-10-31T14:38:06;13.80;99.90
41965;DHT22;50120;53.250;8.702;2022-10-31T14:41:44;13.80;99.90
41965;DHT22;50120;53.250;8.702;2022-10-31T14:44:35;13.80;99.90
41965;DHT22;50120;53.250;8.702;2022-10-31T14:51:54;13.70;99.90
41965;DHT22;50120;53.250;8.702;2022-10-31T14:54:33;13.70;99.90
41965;DHT22;50120;53.250;8.702;2022-10-31T14:57:23;13.70;99.90
41965;DHT22;50120;53.250;8.702;2022-10-31T14:59:57;13.70;99.90
41965;DHT22;50120;53.250;8.702;2022-10-31T15:02:46;13.70;99.90
41965;DHT22;50120;53.250;8.702;2022-10-31T15:05:15;13.80;99.90
41965;DHT22;50120;53.250;8.702;2022-10-31T15:07:56;13.80;99.90
41965;DHT22;50120;53.250;8.702;2022-10-31T15:10:27;13.80;99.90
41965;DHT22;50120;53.250;8.702;2022-10-31T15:12:55;13.80;99.90
41965;DHT22;50120;53.250;8.702;2022-10-31T15:15:26;13.80;99.90
41965;DHT22;50120;53.250;8.702;2022-10-31T15:17:59;13.80;99.90
41965;DHT22;50120;53.250;8.702;2022-10-31T15:20:27;13.80;99.90
41965;DHT22;50120;53.250;8.702;2022-10-31T15:22:55;13.70;99.90
41965;DHT22;50120;53.250;8.702;2022-10-31T15:25:24;13.70;99.90
41965;DHT22;50120;53.250;8.702;2022-10-31T15:27:52;13.70;99.90
41965;DHT22;50120;53.250;8.702;2022-10-31T15:32:44;13.60;99.90
41965;DHT22;50120;53.250;8.702;2022-10-31T15:35:25;13.60;99.90
41965;DHT22;50120;53.250;8.702;2022-10-31T15:37:52;13.60;99.90
41965;DHT22;50120;53.250;8.702;2022-10-31T15:40:19;13.60;99.90
41965;DHT22;50120;53.250;8.702;2022-10-31T15:43:01;13.60;99.90
41965;DHT22;50120;53.250;8.702;2022-10-31T15:45:29;13.50;99.90
41965;DHT22;50120;53.250;8.702;2022-10-31T15:48:03;13.50;99.90
41965;DHT22;50120;53.250;8.702;2022-10-31T15:50:44;13.60;99.90
41965;DHT22;50120;53.250;8.702;2022-10-31T15:53:26;13.50;99.90
41965;DHT22;50120;53.250;8.702;2022-10-31T15:56:00;13.50;99.90
41965;DHT22;50120;53.250;8.702;2022-10-31T15:58:28;13.50;99.90
41965;DHT22;50120;53.250;8.702;2022-10-31T16:01:21;13.50;99.90
41965;DHT22;50120;53.250;8.702;2022-10-31T16:06:34;13.50;99.90
41965;DHT22;50120;53.250;8.702;2022-10-31T16:09:00;13.50;99.90
41965;DHT22;50120;53.250;8.702;2022-10-31T16:16:18;13.40;99.90
41965;DHT22;50120;53.250;8.702;2022-10-31T16:18:46;13.40;99.90
41965;DHT22;50120;53.250;8.702;2022-10-31T16:21:12;13.40;99.90
41965;DHT22;50120;53.250;8.702;2022-10-31T16:23:43;13.40;99.90
41965;DHT22;50120;53.250;8.702;2022-10-31T16:26:13;13.50;99.90
41965;DHT22;50120;53.250;8.702;2022-10-31T16:28:49;13.50;99.90
41965;DHT22;50120;53.250;8.702;2022-10-31T16:31:15;13.40;99.90
41965;DHT22;50120;53.250;8.702;2022-10-31T16:33:41;13.40;99.90
41965;DHT22;50120;53.250;8.702;2022-10-31T16:38:57;13.40;99.90
41965;DHT22;50120;53.250;8.702;2022-10-31T16:41:24;13.40;99.90
41965;DHT22;50120;53.250;8.702;2022-10-31T16:43:50;13.40;99.90
41965;DHT22;50120;53.250;8.702;2022-10-31T16:46:24;13.40;99.90
41965;DHT22;50120;53.250;8.702;2022-10-31T16:48:51;13.30;99.90
41965;DHT22;50120;53.250;8.702;2022-10-31T16:51:17;13.40;99.90
41965;DHT22;50120;53.250;8.702;2022-10-31T16:53:43;13.30;99.90
41965;DHT22;50120;53.250;8.702;2022-10-31T16:56:41;13.40;99.90
41965;DHT22;50120;53.250;8.702;2022-10-31T16:59:10;13.30;99.90
41965;DHT22;50120;53.250;8.702;2022-10-31T17:01:38;13.30;99.90
41965;DHT22;50120;53.250;8.702;2022-10-31T17:04:04;13.20;99.90
41965;DHT22;50120;53.250;8.702;2022-10-31T17:06:30;13.30;99.90
41965;DHT22;50120;53.250;8.702;2022-10-31T17:08:56;13.20;99.90
41965;DHT22;50120;53.250;8.702;2022-10-31T17:11:23;13.20;99.90
41965;DHT22;50120;53.250;8.702;2022-10-31T17:13:50;13.30;99.90
41965;DHT22;50120;53.250;8.702;2022-10-31T17:16:16;13.20;99.90
41965;DHT22;50120;53.250;8.702;2022-10-31T17:18:42;13.20;99.90
41965;DHT22;50120;53.250;8.702;2022-10-31T17:21:22;13.30;99.90
41965;DHT22;50120;53.250;8.702;2022-10-31T17:23:49;13.20;99.90
41965;DHT22;50120;53.250;8.702;2022-10-31T17:26:15;13.20;99.90
41965;DHT22;50120;53.250;8.702;2022-10-31T17:28:41;13.20;99.90
41965;DHT22;50120;53.250;8.702;2022-10-31T17:31:25;13.30;99.90
41965;DHT22;50120;53.250;8.702;2022-10-31T17:33:54;13.20;99.90
41965;DHT22;50120;53.250;8.702;2022-10-31T17:36:20;13.30;99.90
41965;DHT22;50120;53.250;8.702;2022-10-31T17:38:46;13.20;99.90
41965;DHT22;50120;53.250;8.702;2022-10-31T17:41:12;13.20;99.90
41965;DHT22;50120;53.250;8.702;2022-10-31T17:43:37;13.30;99.90
41965;DHT22;50120;53.250;8.702;2022-10-31T17:46:03;13.20;99.90
41965;DHT22;50120;53.250;8.702;2022-10-31T17:48:29;13.20;99.90
41965;DHT22;50120;53.250;8.702;2022-10-31T17:50:59;13.20;99.90
41965;DHT22;50120;53.250;8.702;2022-10-31T17:53:28;13.30;99.90
41965;DHT22;50120;53.250;8.702;2022-10-31T17:55:53;13.20;99.90
41965;DHT22;50120;53.250;8.702;2022-10-31T17:58:24;13.30;99.90
41965;DHT22;50120;53.250;8.702;2022-10-31T18:00:49;13.20;99.90
41965;DHT22;50120;53.250;8.702;2022-10-31T18:03:15;13.20;99.90
41965;DHT22;50120;53.250;8.702;2022-10-31T18:05:56;13.20;99.90
41965;DHT22;50120;53.250;8.702;2022-10-31T18:08:27;13.20;99.90